Terminal Aerodrome Forecast
Issued by NWS

Home | Current Version | Previous Version | Text Only | Print | Product List | Glossary On
Versions: 1 2 3 4 5 6 7 8 9 10 11 12 13 14 15 16 17 18 19
000
FTUS42 KMLB 271828 AAA
TAFISM
TAF AMD
KISM 271828Z 2718/2818 34011KT P6SM VCSH BKN120
     FM280100 VRB04KT P6SM FEW025 SCT050 BKN120
     FM281400 10007KT P6SM VCSH SCT025 BKN050=

USA.gov is the U.S. government's official web portal to all federal, state and local government web resources and services.